Aviation Digital Data Service (ADDS)

Output produced by METARs form (0815 UTC 14 December 2017)
found at http://aviationweather.gov/adds/metars/
 
KILM 140525Z 1406/1506 23008KT P6SM SKC 
     TEMPO 1406/1410 23012G22KT 
     FM141500 26011KT P6SM SCT200 
     FM150000 27003KT P6SM SKC